sensor_id;sensor_type;location;lat;lon;timestamp;temperature;humidity
52575;DHT22;38468;48.114;-1.684;2023-04-15T00:01:45;10.40;74.30
52575;DHT22;38468;48.114;-1.684;2023-04-15T00:03:45;10.40;74.20
52575;DHT22;38468;48.114;-1.684;2023-04-15T00:05:46;10.40;73.90
52575;DHT22;38468;48.114;-1.684;2023-04-15T00:07:47;10.40;73.80
52575;DHT22;38468;48.114;-1.684;2023-04-15T00:09:48;10.40;73.60
52575;DHT22;38468;48.114;-1.684;2023-04-15T00:11:49;10.40;73.20
52575;DHT22;38468;48.114;-1.684;2023-04-15T00:13:50;10.30;72.80
52575;DHT22;38468;48.114;-1.684;2023-04-15T00:15:50;10.30;72.60
52575;DHT22;38468;48.114;-1.684;2023-04-15T00:17:51;10.30;72.40
52575;DHT22;38468;48.114;-1.684;2023-04-15T00:19:52;10.30;72.50
52575;DHT22;38468;48.114;-1.684;2023-04-15T00:21:52;10.20;72.30
52575;DHT22;38468;48.114;-1.684;2023-04-15T00:23:53;10.20;72.10
52575;DHT22;38468;48.114;-1.684;2023-04-15T00:25:54;10.20;72.10
52575;DHT22;38468;48.114;-1.684;2023-04-15T00:27:55;10.30;72.00
52575;DHT22;38468;48.114;-1.684;2023-04-15T00:29:55;10.20;72.00
52575;DHT22;38468;48.114;-1.684;2023-04-15T00:31:56;10.20;72.00
52575;DHT22;38468;48.114;-1.684;2023-04-15T00:33:57;10.20;72.10
52575;DHT22;38468;48.114;-1.684;2023-04-15T00:35:59;10.20;72.10
52575;DHT22;38468;48.114;-1.684;2023-04-15T00:37:59;10.20;72.00
52575;DHT22;38468;48.114;-1.684;2023-04-15T00:40:00;10.20;71.90
52575;DHT22;38468;48.114;-1.684;2023-04-15T00:42:02;10.10;72.00
52575;DHT22;38468;48.114;-1.684;2023-04-15T00:44:04;10.20;72.00
52575;DHT22;38468;48.114;-1.684;2023-04-15T00:46:06;10.10;71.60
52575;DHT22;38468;48.114;-1.684;2023-04-15T00:48:07;10.10;71.70
52575;DHT22;38468;48.114;-1.684;2023-04-15T00:50:09;10.10;71.30
52575;DHT22;38468;48.114;-1.684;2023-04-15T00:52:10;10.00;71.20
52575;DHT22;38468;48.114;-1.684;2023-04-15T00:54:11;9.90;70.70
52575;DHT22;38468;48.114;-1.684;2023-04-15T00:56:12;10.00;70.50
52575;DHT22;38468;48.114;-1.684;2023-04-15T00:58:13;9.90;70.30
52575;DHT22;38468;48.114;-1.684;2023-04-15T01:00:15;9.90;69.80
52575;DHT22;38468;48.114;-1.684;2023-04-15T01:02:16;9.80;69.30
52575;DHT22;38468;48.114;-1.684;2023-04-15T01:04:17;9.80;69.30
52575;DHT22;38468;48.114;-1.684;2023-04-15T01:06:17;9.80;69.50
52575;DHT22;38468;48.114;-1.684;2023-04-15T01:08:18;9.70;69.30
52575;DHT22;38468;48.114;-1.684;2023-04-15T01:10:19;9.70;68.80
52575;DHT22;38468;48.114;-1.684;2023-04-15T01:12:20;9.70;68.80
52575;DHT22;38468;48.114;-1.684;2023-04-15T01:14:21;9.70;69.00
52575;DHT22;38468;48.114;-1.684;2023-04-15T01:16:22;9.60;68.90
52575;DHT22;38468;48.114;-1.684;2023-04-15T01:18:23;9.60;68.50
52575;DHT22;38468;48.114;-1.684;2023-04-15T01:20:24;9.50;68.40
52575;DHT22;38468;48.114;-1.684;2023-04-15T01:22:26;9.50;68.20
52575;DHT22;38468;48.114;-1.684;2023-04-15T01:24:27;9.50;68.20
52575;DHT22;38468;48.114;-1.684;2023-04-15T01:26:29;9.50;68.00
52575;DHT22;38468;48.114;-1.684;2023-04-15T01:28:30;9.40;68.20
52575;DHT22;38468;48.114;-1.684;2023-04-15T01:30:35;9.40;68.30
52575;DHT22;38468;48.114;-1.684;2023-04-15T01:32:35;9.40;68.30
52575;DHT22;38468;48.114;-1.684;2023-04-15T01:34:36;9.40;68.20
52575;DHT22;38468;48.114;-1.684;2023-04-15T01:36:37;9.40;68.30
52575;DHT22;38468;48.114;-1.684;2023-04-15T01:38:38;9.40;68.00
52575;DHT22;38468;48.114;-1.684;2023-04-15T01:40:38;9.30;68.00
52575;DHT22;38468;48.114;-1.684;2023-04-15T01:42:40;9.30;68.10
52575;DHT22;38468;48.114;-1.684;2023-04-15T01:44:41;9.30;68.00
52575;DHT22;38468;48.114;-1.684;2023-04-15T01:46:41;9.30;68.00
52575;DHT22;38468;48.114;-1.684;2023-04-15T01:48:42;9.30;67.80
52575;DHT22;38468;48.114;-1.684;2023-04-15T01:50:43;9.20;68.00
52575;DHT22;38468;48.114;-1.684;2023-04-15T01:52:43;9.20;68.20
52575;DHT22;38468;48.114;-1.684;2023-04-15T01:54:44;9.20;68.20
52575;DHT22;38468;48.114;-1.684;2023-04-15T01:56:45;9.20;68.10
52575;DHT22;38468;48.114;-1.684;2023-04-15T01:58:46;9.20;68.20
52575;DHT22;38468;48.114;-1.684;2023-04-15T02:00:47;9.10;68.10
52575;DHT22;38468;48.114;-1.684;2023-04-15T02:02:48;9.10;68.10
52575;DHT22;38468;48.114;-1.684;2023-04-15T02:04:48;9.10;68.10
52575;DHT22;38468;48.114;-1.684;2023-04-15T02:06:49;9.10;68.00
52575;DHT22;38468;48.114;-1.684;2023-04-15T02:08:50;9.10;68.00
52575;DHT22;38468;48.114;-1.684;2023-04-15T02:10:51;9.00;68.00
52575;DHT22;38468;48.114;-1.684;2023-04-15T02:12:52;9.00;68.10
52575;DHT22;38468;48.114;-1.684;2023-04-15T02:14:53;9.00;67.90
52575;DHT22;38468;48.114;-1.684;2023-04-15T02:16:54;9.00;68.00
52575;DHT22;38468;48.114;-1.684;2023-04-15T02:18:54;9.00;67.90
52575;DHT22;38468;48.114;-1.684;2023-04-15T02:20:55;9.00;67.90
52575;DHT22;38468;48.114;-1.684;2023-04-15T02:22:57;9.00;68.00
52575;DHT22;38468;48.114;-1.684;2023-04-15T02:24:58;9.00;67.90
52575;DHT22;38468;48.114;-1.684;2023-04-15T02:26:59;8.90;68.20
52575;DHT22;38468;48.114;-1.684;2023-04-15T02:29:01;8.90;68.30
52575;DHT22;38468;48.114;-1.684;2023-04-15T02:31:05;8.90;68.10
52575;DHT22;38468;48.114;-1.684;2023-04-15T02:33:05;8.90;68.30
52575;DHT22;38468;48.114;-1.684;2023-04-15T02:35:07;8.90;68.30
52575;DHT22;38468;48.114;-1.684;2023-04-15T02:37:10;8.90;68.40
52575;DHT22;38468;48.114;-1.684;2023-04-15T02:39:11;8.90;68.30
52575;DHT22;38468;48.114;-1.684;2023-04-15T02:41:14;8.90;68.30
52575;DHT22;38468;48.114;-1.684;2023-04-15T02:43:14;8.90;68.40
52575;DHT22;38468;48.114;-1.684;2023-04-15T02:45:16;8.90;68.50
52575;DHT22;38468;48.114;-1.684;2023-04-15T02:47:18;8.80;68.50
52575;DHT22;38468;48.114;-1.684;2023-04-15T02:49:20;8.80;68.60
52575;DHT22;38468;48.114;-1.684;2023-04-15T02:51:21;8.80;68.60
52575;DHT22;38468;48.114;-1.684;2023-04-15T02:53:22;8.80;68.70
52575;DHT22;38468;48.114;-1.684;2023-04-15T02:55:23;8.80;68.80
52575;DHT22;38468;48.114;-1.684;2023-04-15T02:57:23;8.80;68.90
52575;DHT22;38468;48.114;-1.684;2023-04-15T02:59:24;8.80;69.00
52575;DHT22;38468;48.114;-1.684;2023-04-15T03:01:25;8.70;69.00
52575;DHT22;38468;48.114;-1.684;2023-04-15T03:03:25;8.70;69.20
52575;DHT22;38468;48.114;-1.684;2023-04-15T03:05:28;8.80;69.00
52575;DHT22;38468;48.114;-1.684;2023-04-15T03:07:28;8.70;69.10
52575;DHT22;38468;48.114;-1.684;2023-04-15T03:09:29;8.70;69.10
52575;DHT22;38468;48.114;-1.684;2023-04-15T03:11:30;8.70;69.20
52575;DHT22;38468;48.114;-1.684;2023-04-15T03:13:31;8.70;69.20
52575;DHT22;38468;48.114;-1.684;2023-04-15T03:15:32;8.80;69.30
52575;DHT22;38468;48.114;-1.684;2023-04-15T03:17:33;8.80;69.10
52575;DHT22;38468;48.114;-1.684;2023-04-15T03:19:33;8.80;69.20
52575;DHT22;38468;48.114;-1.684;2023-04-15T03:21:34;8.70;69.30
52575;DHT22;38468;48.114;-1.684;2023-04-15T03:23:35;8.70;69.30
52575;DHT22;38468;48.114;-1.684;2023-04-15T03:25:35;8.70;69.50
52575;DHT22;38468;48.114;-1.684;2023-04-15T03:27:37;8.70;69.60
52575;DHT22;38468;48.114;-1.684;2023-04-15T03:29:38;8.70;69.70
52575;DHT22;38468;48.114;-1.684;2023-04-15T03:31:38;8.70;69.70
52575;DHT22;38468;48.114;-1.684;2023-04-15T03:33:39;8.70;69.90
52575;DHT22;38468;48.114;-1.684;2023-04-15T03:35:39;8.70;70.00
52575;DHT22;38468;48.114;-1.684;2023-04-15T03:37:40;8.70;69.80
52575;DHT22;38468;48.114;-1.684;2023-04-15T03:39:41;8.70;69.70
52575;DHT22;38468;48.114;-1.684;2023-04-15T03:41:41;8.70;69.80
52575;DHT22;38468;48.114;-1.684;2023-04-15T03:43:42;8.70;69.80
52575;DHT22;38468;48.114;-1.684;2023-04-15T03:45:43;8.70;69.80
52575;DHT22;38468;48.114;-1.684;2023-04-15T03:47:43;8.70;70.10
52575;DHT22;38468;48.114;-1.684;2023-04-15T03:49:44;8.60;70.10
52575;DHT22;38468;48.114;-1.684;2023-04-15T03:51:45;8.60;70.30
52575;DHT22;38468;48.114;-1.684;2023-04-15T03:53:46;8.70;70.40
52575;DHT22;38468;48.114;-1.684;2023-04-15T03:55:46;8.70;70.40
52575;DHT22;38468;48.114;-1.684;2023-04-15T03:57:47;8.70;70.50
52575;DHT22;38468;48.114;-1.684;2023-04-15T03:59:47;8.60;70.70
52575;DHT22;38468;48.114;-1.684;2023-04-15T04:01:48;8.60;70.70
52575;DHT22;38468;48.114;-1.684;2023-04-15T04:03:49;8.70;70.70
52575;DHT22;38468;48.114;-1.684;2023-04-15T04:05:50;8.60;70.80
52575;DHT22;38468;48.114;-1.684;2023-04-15T04:07:51;8.60;70.80
52575;DHT22;38468;48.114;-1.684;2023-04-15T04:09:52;8.60;70.90
52575;DHT22;38468;48.114;-1.684;2023-04-15T04:11:52;8.50;71.20
52575;DHT22;38468;48.114;-1.684;2023-04-15T04:13:53;8.40;71.40
52575;DHT22;38468;48.114;-1.684;2023-04-15T04:15:53;8.50;71.60
52575;DHT22;38468;48.114;-1.684;2023-04-15T04:17:54;8.40;71.70
52575;DHT22;38468;48.114;-1.684;2023-04-15T04:19:55;8.40;72.00
52575;DHT22;38468;48.114;-1.684;2023-04-15T04:21:56;8.40;71.60
52575;DHT22;38468;48.114;-1.684;2023-04-15T04:23:56;8.40;72.00
52575;DHT22;38468;48.114;-1.684;2023-04-15T04:25:58;8.40;72.00
52575;DHT22;38468;48.114;-1.684;2023-04-15T04:27:58;8.40;72.10
52575;DHT22;38468;48.114;-1.684;2023-04-15T04:29:59;8.40;72.20
52575;DHT22;38468;48.114;-1.684;2023-04-15T04:32:00;8.30;72.40
52575;DHT22;38468;48.114;-1.684;2023-04-15T04:34:01;8.30;72.40
52575;DHT22;38468;48.114;-1.684;2023-04-15T04:36:02;8.30;72.70
52575;DHT22;38468;48.114;-1.684;2023-04-15T04:38:03;8.20;72.90
52575;DHT22;38468;48.114;-1.684;2023-04-15T04:40:04;8.30;73.00
52575;DHT22;38468;48.114;-1.684;2023-04-15T04:42:05;8.20;73.30
52575;DHT22;38468;48.114;-1.684;2023-04-15T04:44:05;8.20;73.40
52575;DHT22;38468;48.114;-1.684;2023-04-15T04:46:06;8.20;73.40
52575;DHT22;38468;48.114;-1.684;2023-04-15T04:48:07;8.20;73.50
52575;DHT22;38468;48.114;-1.684;2023-04-15T04:50:08;8.20;73.50
52575;DHT22;38468;48.114;-1.684;2023-04-15T04:52:08;8.10;73.90
52575;DHT22;38468;48.114;-1.684;2023-04-15T04:54:09;8.20;73.90
52575;DHT22;38468;48.114;-1.684;2023-04-15T04:56:10;8.20;74.10
52575;DHT22;38468;48.114;-1.684;2023-04-15T04:58:10;8.20;74.20
52575;DHT22;38468;48.114;-1.684;2023-04-15T05:00:12;8.20;74.20
52575;DHT22;38468;48.114;-1.684;2023-04-15T05:02:13;8.20;74.30
52575;DHT22;38468;48.114;-1.684;2023-04-15T05:04:14;8.20;74.40
52575;DHT22;38468;48.114;-1.684;2023-04-15T05:06:14;8.20;74.80
52575;DHT22;38468;48.114;-1.684;2023-04-15T05:08:15;8.20;74.80
52575;DHT22;38468;48.114;-1.684;2023-04-15T05:10:16;8.20;74.80
52575;DHT22;38468;48.114;-1.684;2023-04-15T05:12:17;8.20;75.10
52575;DHT22;38468;48.114;-1.684;2023-04-15T05:14:18;8.20;75.20
52575;DHT22;38468;48.114;-1.684;2023-04-15T05:16:19;8.20;75.30
52575;DHT22;38468;48.114;-1.684;2023-04-15T05:18:20;8.20;75.30
52575;DHT22;38468;48.114;-1.684;2023-04-15T05:20:20;8.20;75.50
52575;DHT22;38468;48.114;-1.684;2023-04-15T05:22:24;8.30;75.40
52575;DHT22;38468;48.114;-1.684;2023-04-15T05:24:25;8.30;75.60
52575;DHT22;38468;48.114;-1.684;2023-04-15T05:26:26;8.30;75.80
52575;DHT22;38468;48.114;-1.684;2023-04-15T05:28:27;8.30;75.60
52575;DHT22;38468;48.114;-1.684;2023-04-15T05:30:28;8.40;75.80
52575;DHT22;38468;48.114;-1.684;2023-04-15T05:32:29;8.40;76.10
52575;DHT22;38468;48.114;-1.684;2023-04-15T05:34:29;8.40;76.10
52575;DHT22;38468;48.114;-1.684;2023-04-15T05:36:30;8.40;76.10
52575;DHT22;38468;48.114;-1.684;2023-04-15T05:38:31;8.40;76.20
52575;DHT22;38468;48.114;-1.684;2023-04-15T05:40:31;8.40;76.40
52575;DHT22;38468;48.114;-1.684;2023-04-15T05:42:32;8.40;76.60
52575;DHT22;38468;48.114;-1.684;2023-04-15T05:44:34;8.50;76.60
52575;DHT22;38468;48.114;-1.684;2023-04-15T05:46:34;8.50;76.60
52575;DHT22;38468;48.114;-1.684;2023-04-15T05:48:35;8.50;76.80
52575;DHT22;38468;48.114;-1.684;2023-04-15T05:50:36;8.50;76.80
52575;DHT22;38468;48.114;-1.684;2023-04-15T05:52:37;8.60;77.10
52575;DHT22;38468;48.114;-1.684;2023-04-15T05:54:37;8.60;77.10
52575;DHT22;38468;48.114;-1.684;2023-04-15T05:56:38;8.60;76.90
52575;DHT22;38468;48.114;-1.684;2023-04-15T05:58:38;8.70;77.10
52575;DHT22;38468;48.114;-1.684;2023-04-15T06:00:39;8.70;77.10
52575;DHT22;38468;48.114;-1.684;2023-04-15T06:02:41;8.70;77.20
52575;DHT22;38468;48.114;-1.684;2023-04-15T06:04:42;8.70;77.20
52575;DHT22;38468;48.114;-1.684;2023-04-15T06:06:43;8.80;77.30
52575;DHT22;38468;48.114;-1.684;2023-04-15T06:08:44;8.80;77.40
52575;DHT22;38468;48.114;-1.684;2023-04-15T06:10:44;8.90;77.50
52575;DHT22;38468;48.114;-1.684;2023-04-15T06:12:45;8.90;77.60
52575;DHT22;38468;48.114;-1.684;2023-04-15T06:14:46;8.90;77.70
52575;DHT22;38468;48.114;-1.684;2023-04-15T06:16:46;8.90;77.70
52575;DHT22;38468;48.114;-1.684;2023-04-15T06:18:47;9.00;77.40
52575;DHT22;38468;48.114;-1.684;2023-04-15T06:20:48;9.00;77.30
52575;DHT22;38468;48.114;-1.684;2023-04-15T06:22:48;9.10;77.30
52575;DHT22;38468;48.114;-1.684;2023-04-15T06:24:49;9.10;77.30
52575;DHT22;38468;48.114;-1.684;2023-04-15T06:26:50;9.20;77.20
52575;DHT22;38468;48.114;-1.684;2023-04-15T06:28:51;9.20;77.20
52575;DHT22;38468;48.114;-1.684;2023-04-15T06:30:52;9.30;77.20
52575;DHT22;38468;48.114;-1.684;2023-04-15T06:32:54;9.40;77.20
52575;DHT22;38468;48.114;-1.684;2023-04-15T06:34:55;9.40;77.10
52575;DHT22;38468;48.114;-1.684;2023-04-15T06:36:56;9.40;77.00
52575;DHT22;38468;48.114;-1.684;2023-04-15T06:38:56;9.50;76.90
52575;DHT22;38468;48.114;-1.684;2023-04-15T06:40:57;9.60;76.80
52575;DHT22;38468;48.114;-1.684;2023-04-15T06:42:58;9.70;76.60
52575;DHT22;38468;48.114;-1.684;2023-04-15T06:44:58;9.70;76.50
52575;DHT22;38468;48.114;-1.684;2023-04-15T06:46:59;9.70;76.50
52575;DHT22;38468;48.114;-1.684;2023-04-15T06:49:00;9.90;76.40
52575;DHT22;38468;48.114;-1.684;2023-04-15T06:51:01;9.90;76.20
52575;DHT22;38468;48.114;-1.684;2023-04-15T06:53:03;10.20;75.90
52575;DHT22;38468;48.114;-1.684;2023-04-15T06:55:04;10.40;75.30
52575;DHT22;38468;48.114;-1.684;2023-04-15T06:57:05;10.50;74.60
52575;DHT22;38468;48.114;-1.684;2023-04-15T06:59:06;10.50;74.60
52575;DHT22;38468;48.114;-1.684;2023-04-15T07:01:08;10.50;74.60
52575;DHT22;38468;48.114;-1.684;2023-04-15T07:03:08;10.50;74.60
52575;DHT22;38468;48.114;-1.684;2023-04-15T07:05:10;10.50;74.60
52575;DHT22;38468;48.114;-1.684;2023-04-15T07:07:12;10.50;74.50
52575;DHT22;38468;48.114;-1.684;2023-04-15T07:09:12;10.60;74.60
52575;DHT22;38468;48.114;-1.684;2023-04-15T07:11:13;10.70;74.50
52575;DHT22;38468;48.114;-1.684;2023-04-15T07:13:14;10.70;74.50
52575;DHT22;38468;48.114;-1.684;2023-04-15T07:15:15;10.80;74.20
52575;DHT22;38468;48.114;-1.684;2023-04-15T07:17:16;10.90;74.10
52575;DHT22;38468;48.114;-1.684;2023-04-15T07:19:17;10.90;73.60
52575;DHT22;38468;48.114;-1.684;2023-04-15T07:21:17;11.00;73.50
52575;DHT22;38468;48.114;-1.684;2023-04-15T07:23:18;11.10;73.10
52575;DHT22;38468;48.114;-1.684;2023-04-15T07:25:19;11.20;73.20
52575;DHT22;38468;48.114;-1.684;2023-04-15T07:27:19;11.30;73.10
52575;DHT22;38468;48.114;-1.684;2023-04-15T07:29:20;11.40;72.80
52575;DHT22;38468;48.114;-1.684;2023-04-15T07:31:21;11.30;72.30
52575;DHT22;38468;48.114;-1.684;2023-04-15T07:33:22;11.50;72.40
52575;DHT22;38468;48.114;-1.684;2023-04-15T07:35:23;11.70;72.00
52575;DHT22;38468;48.114;-1.684;2023-04-15T07:37:24;11.90;71.50
52575;DHT22;38468;48.114;-1.684;2023-04-15T07:39:25;11.80;70.80
52575;DHT22;38468;48.114;-1.684;2023-04-15T07:41:26;11.90;70.70
52575;DHT22;38468;48.114;-1.684;2023-04-15T07:43:27;11.90;70.70
52575;DHT22;38468;48.114;-1.684;2023-04-15T07:45:28;11.90;70.90
52575;DHT22;38468;48.114;-1.684;2023-04-15T07:47:29;12.00;70.70
52575;DHT22;38468;48.114;-1.684;2023-04-15T07:49:29;12.10;70.20
52575;DHT22;38468;48.114;-1.684;2023-04-15T07:51:30;12.20;70.00
52575;DHT22;38468;48.114;-1.684;2023-04-15T07:53:31;12.20;69.50
52575;DHT22;38468;48.114;-1.684;2023-04-15T07:55:32;12.10;69.30
52575;DHT22;38468;48.114;-1.684;2023-04-15T07:57:34;12.30;69.60
52575;DHT22;38468;48.114;-1.684;2023-04-15T07:59:35;12.60;69.60
52575;DHT22;38468;48.114;-1.684;2023-04-15T08:01:35;13.00;68.50
52575;DHT22;38468;48.114;-1.684;2023-04-15T08:03:37;13.70;68.30
52575;DHT22;38468;48.114;-1.684;2023-04-15T08:05:38;14.00;66.50
52575;DHT22;38468;48.114;-1.684;2023-04-15T08:07:39;14.50;65.40
52575;DHT22;38468;48.114;-1.684;2023-04-15T08:09:40;14.80;62.30
52575;DHT22;38468;48.114;-1.684;2023-04-15T08:11:41;15.00;62.10
52575;DHT22;38468;48.114;-1.684;2023-04-15T08:13:42;15.70;61.40
52575;DHT22;38468;48.114;-1.684;2023-04-15T08:15:42;16.00;59.10
52575;DHT22;38468;48.114;-1.684;2023-04-15T08:17:43;16.20;57.20
52575;DHT22;38468;48.114;-1.684;2023-04-15T08:19:44;16.40;56.80
52575;DHT22;38468;48.114;-1.684;2023-04-15T08:21:44;17.20;57.40
52575;DHT22;38468;48.114;-1.684;2023-04-15T08:23:46;17.80;54.30
52575;DHT22;38468;48.114;-1.684;2023-04-15T08:25:48;18.00;53.40
52575;DHT22;38468;48.114;-1.684;2023-04-15T08:27:49;17.90;50.60
52575;DHT22;38468;48.114;-1.684;2023-04-15T08:29:50;17.90;52.30
52575;DHT22;38468;48.114;-1.684;2023-04-15T08:31:50;17.90;51.20
52575;DHT22;38468;48.114;-1.684;2023-04-15T08:33:53;17.30;51.30
52575;DHT22;38468;48.114;-1.684;2023-04-15T08:35:56;16.90;52.90
52575;DHT22;38468;48.114;-1.684;2023-04-15T08:37:57;17.00;54.60
52575;DHT22;38468;48.114;-1.684;2023-04-15T08:39:57;17.40;53.00
52575;DHT22;38468;48.114;-1.684;2023-04-15T08:42:02;17.60;52.50
52575;DHT22;38468;48.114;-1.684;2023-04-15T08:44:04;17.70;51.60
52575;DHT22;38468;48.114;-1.684;2023-04-15T08:46:05;17.50;49.90
52575;DHT22;38468;48.114;-1.684;2023-04-15T08:48:07;17.30;49.90
52575;DHT22;38468;48.114;-1.684;2023-04-15T08:50:09;17.10;49.10
52575;DHT22;38468;48.114;-1.684;2023-04-15T08:52:11;17.30;48.90
52575;DHT22;38468;48.114;-1.684;2023-04-15T08:54:12;17.80;47.90
52575;DHT22;38468;48.114;-1.684;2023-04-15T08:56:14;18.00;47.40
52575;DHT22;38468;48.114;-1.684;2023-04-15T08:58:16;18.30;46.70
52575;DHT22;38468;48.114;-1.684;2023-04-15T09:00:18;18.30;46.00
52575;DHT22;38468;48.114;-1.684;2023-04-15T09:02:19;18.50;45.00
52575;DHT22;38468;48.114;-1.684;2023-04-15T09:04:20;18.40;46.20
52575;DHT22;38468;48.114;-1.684;2023-04-15T09:06:22;18.50;46.10
52575;DHT22;38468;48.114;-1.684;2023-04-15T09:08:22;18.00;47.20
52575;DHT22;38468;48.114;-1.684;2023-04-15T09:10:23;17.70;47.20
52575;DHT22;38468;48.114;-1.684;2023-04-15T09:12:24;17.40;47.40
52575;DHT22;38468;48.114;-1.684;2023-04-15T09:14:24;17.50;46.70
52575;DHT22;38468;48.114;-1.684;2023-04-15T09:16:25;17.20;47.50
52575;DHT22;38468;48.114;-1.684;2023-04-15T09:18:28;17.20;47.90
52575;DHT22;38468;48.114;-1.684;2023-04-15T09:20:29;17.30;47.70
52575;DHT22;38468;48.114;-1.684;2023-04-15T09:22:32;17.30;47.60
52575;DHT22;38468;48.114;-1.684;2023-04-15T09:24:36;17.40;47.30
52575;DHT22;38468;48.114;-1.684;2023-04-15T09:26:38;17.60;46.40
52575;DHT22;38468;48.114;-1.684;2023-04-15T09:28:42;17.20;47.90
52575;DHT22;38468;48.114;-1.684;2023-04-15T09:30:43;17.20;46.30
52575;DHT22;38468;48.114;-1.684;2023-04-15T09:32:55;16.90;45.80
52575;DHT22;38468;48.114;-1.684;2023-04-15T09:34:56;16.80;47.30
52575;DHT22;38468;48.114;-1.684;2023-04-15T09:36:57;17.20;47.90
52575;DHT22;38468;48.114;-1.684;2023-04-15T09:38:59;17.40;47.00
52575;DHT22;38468;48.114;-1.684;2023-04-15T09:40:59;17.30;47.70
52575;DHT22;38468;48.114;-1.684;2023-04-15T09:43:01;17.30;47.00
52575;DHT22;38468;48.114;-1.684;2023-04-15T09:45:10;17.20;47.90
52575;DHT22;38468;48.114;-1.684;2023-04-15T09:47:29;17.00;48.10
52575;DHT22;38468;48.114;-1.684;2023-04-15T09:49:30;16.90;47.20
52575;DHT22;38468;48.114;-1.684;2023-04-15T09:51:34;16.60;47.70
52575;DHT22;38468;48.114;-1.684;2023-04-15T09:53:36;16.30;48.10
52575;DHT22;38468;48.114;-1.684;2023-04-15T09:55:37;16.30;48.30
52575;DHT22;38468;48.114;-1.684;2023-04-15T09:57:39;16.20;48.70
52575;DHT22;38468;48.114;-1.684;2023-04-15T09:59:49;16.20;48.80
52575;DHT22;38468;48.114;-1.684;2023-04-15T10:01:50;16.10;49.00
52575;DHT22;38468;48.114;-1.684;2023-04-15T10:03:51;16.00;48.90
52575;DHT22;38468;48.114;-1.684;2023-04-15T10:05:54;15.90;48.50
52575;DHT22;38468;48.114;-1.684;2023-04-15T10:07:56;15.70;48.20
52575;DHT22;38468;48.114;-1.684;2023-04-15T10:09:59;15.40;48.60
52575;DHT22;38468;48.114;-1.684;2023-04-15T10:12:03;15.30;49.70
52575;DHT22;38468;48.114;-1.684;2023-04-15T10:14:06;15.40;49.30
52575;DHT22;38468;48.114;-1.684;2023-04-15T10:16:13;15.40;48.90
52575;DHT22;38468;48.114;-1.684;2023-04-15T10:18:15;15.40;48.60
52575;DHT22;38468;48.114;-1.684;2023-04-15T10:20:18;15.50;49.20
52575;DHT22;38468;48.114;-1.684;2023-04-15T10:22:22;15.50;49.40
52575;DHT22;38468;48.114;-1.684;2023-04-15T10:24:23;15.50;49.60
52575;DHT22;38468;48.114;-1.684;2023-04-15T10:26:25;15.60;49.30
52575;DHT22;38468;48.114;-1.684;2023-04-15T10:28:27;15.60;49.50
52575;DHT22;38468;48.114;-1.684;2023-04-15T10:30:27;15.50;49.30
52575;DHT22;38468;48.114;-1.684;2023-04-15T10:32:28;15.40;49.70
52575;DHT22;38468;48.114;-1.684;2023-04-15T10:34:30;15.20;49.40
52575;DHT22;38468;48.114;-1.684;2023-04-15T10:36:32;15.30;49.70
52575;DHT22;38468;48.114;-1.684;2023-04-15T10:38:37;15.40;49.60
52575;DHT22;38468;48.114;-1.684;2023-04-15T10:40:38;15.50;49.60
52575;DHT22;38468;48.114;-1.684;2023-04-15T10:42:39;15.70;49.50
52575;DHT22;38468;48.114;-1.684;2023-04-15T10:44:50;15.50;48.70
52575;DHT22;38468;48.114;-1.684;2023-04-15T10:46:51;15.50;48.70
52575;DHT22;38468;48.114;-1.684;2023-04-15T10:48:53;15.60;48.70
52575;DHT22;38468;48.114;-1.684;2023-04-15T10:50:57;15.70;48.30
52575;DHT22;38468;48.114;-1.684;2023-04-15T10:53:02;15.60;47.70
52575;DHT22;38468;48.114;-1.684;2023-04-15T11:03:11;15.70;48.10
52575;DHT22;38468;48.114;-1.684;2023-04-15T11:05:17;15.70;47.80
52575;DHT22;38468;48.114;-1.684;2023-04-15T11:07:41;15.60;47.90
52575;DHT22;38468;48.114;-1.684;2023-04-15T11:09:47;15.50;48.30
52575;DHT22;38468;48.114;-1.684;2023-04-15T11:12:07;15.40;48.70
52575;DHT22;38468;48.114;-1.684;2023-04-15T11:14:14;15.30;48.30
52575;DHT22;38468;48.114;-1.684;2023-04-15T11:16:15;15.10;48.50
52575;DHT22;38468;48.114;-1.684;2023-04-15T11:18:18;15.20;48.00
52575;DHT22;38468;48.114;-1.684;2023-04-15T11:20:20;15.30;48.00
52575;DHT22;38468;48.114;-1.684;2023-04-15T11:22:20;15.00;47.50
52575;DHT22;38468;48.114;-1.684;2023-04-15T11:24:24;15.20;48.80
52575;DHT22;38468;48.114;-1.684;2023-04-15T11:26:28;15.40;48.20
52575;DHT22;38468;48.114;-1.684;2023-04-15T11:28:30;15.50;48.20
52575;DHT22;38468;48.114;-1.684;2023-04-15T11:30:33;15.50;48.30
52575;DHT22;38468;48.114;-1.684;2023-04-15T11:32:34;15.50;46.90
52575;DHT22;38468;48.114;-1.684;2023-04-15T11:34:34;15.50;46.90
52575;DHT22;38468;48.114;-1.684;2023-04-15T11:36:35;15.40;47.80
52575;DHT22;38468;48.114;-1.684;2023-04-15T11:38:36;15.50;47.00
52575;DHT22;38468;48.114;-1.684;2023-04-15T11:40:38;15.50;47.90
52575;DHT22;38468;48.114;-1.684;2023-04-15T11:42:38;15.50;47.50
52575;DHT22;38468;48.114;-1.684;2023-04-15T11:44:39;15.40;47.10
52575;DHT22;38468;48.114;-1.684;2023-04-15T11:46:40;15.40;47.20
52575;DHT22;38468;48.114;-1.684;2023-04-15T11:48:45;15.40;47.20
52575;DHT22;38468;48.114;-1.684;2023-04-15T11:50:52;15.40;47.30
52575;DHT22;38468;48.114;-1.684;2023-04-15T11:52:55;15.20;47.70
52575;DHT22;38468;48.114;-1.684;2023-04-15T11:55:02;15.20;48.20
52575;DHT22;38468;48.114;-1.684;2023-04-15T11:57:03;15.00;47.90
52575;DHT22;38468;48.114;-1.684;2023-04-15T11:59:04;15.20;48.30
52575;DHT22;38468;48.114;-1.684;2023-04-15T12:01:05;15.30;48.00
52575;DHT22;38468;48.114;-1.684;2023-04-15T12:03:26;15.40;48.00
52575;DHT22;38468;48.114;-1.684;2023-04-15T12:05:26;15.40;48.60
52575;DHT22;38468;48.114;-1.684;2023-04-15T12:07:27;15.50;48.30
52575;DHT22;38468;48.114;-1.684;2023-04-15T12:09:28;15.60;48.60
52575;DHT22;38468;48.114;-1.684;2023-04-15T12:11:37;15.50;48.10
52575;DHT22;38468;48.114;-1.684;2023-04-15T12:13:46;15.20;46.60
52575;DHT22;38468;48.114;-1.684;2023-04-15T12:15:48;15.20;46.90
52575;DHT22;38468;48.114;-1.684;2023-04-15T12:17:53;15.40;47.50
52575;DHT22;38468;48.114;-1.684;2023-04-15T12:19:55;15.50;48.40
52575;DHT22;38468;48.114;-1.684;2023-04-15T12:21:59;15.70;47.40
52575;DHT22;38468;48.114;-1.684;2023-04-15T12:24:07;15.80;47.10
52575;DHT22;38468;48.114;-1.684;2023-04-15T12:26:09;15.80;47.10
52575;DHT22;38468;48.114;-1.684;2023-04-15T12:28:10;15.60;45.80
52575;DHT22;38468;48.114;-1.684;2023-04-15T12:30:12;15.40;46.00
52575;DHT22;38468;48.114;-1.684;2023-04-15T12:32:16;15.50;46.50
52575;DHT22;38468;48.114;-1.684;2023-04-15T12:34:37;15.60;47.50
52575;DHT22;38468;48.114;-1.684;2023-04-15T12:36:38;15.60;46.20
52575;DHT22;38468;48.114;-1.684;2023-04-15T12:38:39;15.50;45.80
52575;DHT22;38468;48.114;-1.684;2023-04-15T12:40:40;15.60;45.30
52575;DHT22;38468;48.114;-1.684;2023-04-15T12:42:40;15.50;46.10
52575;DHT22;38468;48.114;-1.684;2023-04-15T12:44:41;15.60;47.30
52575;DHT22;38468;48.114;-1.684;2023-04-15T12:46:42;15.60;47.10
52575;DHT22;38468;48.114;-1.684;2023-04-15T12:48:43;15.60;47.20
52575;DHT22;38468;48.114;-1.684;2023-04-15T12:50:44;15.70;46.40